createdAt,value
2022-11-19T00:01:31.777Z,15.03
2022-11-19T00:03:58.248Z,14.77
2022-11-19T00:06:26.794Z,15.27
2022-11-19T00:08:53.830Z,13.93
2022-11-19T00:11:41.167Z,12.03
2022-11-19T00:14:10.043Z,12.30
2022-11-19T00:16:36.194Z,12.77
2022-11-19T00:19:03.180Z,12.73
2022-11-19T00:21:29.253Z,16.67
2022-11-19T00:23:56.487Z,16.60
2022-11-19T00:26:23.077Z,17.27
2022-11-19T00:28:49.586Z,16.73
2022-11-19T00:31:16.396Z,16.23
2022-11-19T00:33:44.450Z,16.73
2022-11-19T00:36:13.165Z,20.10
2022-11-19T00:38:39.585Z,21.63
2022-11-19T00:41:06.323Z,21.57
2022-11-19T00:43:49.395Z,18.27
2022-11-19T00:46:19.582Z,18.13
2022-11-19T00:48:47.906Z,18.23
2022-11-19T00:51:15.217Z,17.27
2022-11-19T00:53:41.647Z,35.03
2022-11-19T00:56:10.906Z,31.77
2022-11-19T00:58:37.623Z,25.40
2022-11-19T01:01:04.616Z,19.67
2022-11-19T01:03:31.969Z,18.20
2022-11-19T01:05:58.269Z,15.23
2022-11-19T01:08:24.660Z,15.63
2022-11-19T01:10:50.838Z,20.37
2022-11-19T01:13:35.270Z,17.53
2022-11-19T01:16:04.792Z,13.53
2022-11-19T01:18:31.952Z,13.03
2022-11-19T01:20:58.111Z,12.73
2022-11-19T01:23:24.518Z,13.13
2022-11-19T01:25:50.691Z,14.50
2022-11-19T01:28:17.299Z,16.93
2022-11-19T01:30:43.688Z,14.43
2022-11-19T01:33:10.109Z,16.80
2022-11-19T01:35:36.643Z,12.77
2022-11-19T01:38:04.706Z,11.80
2022-11-19T01:40:31.773Z,14.50
2022-11-19T01:42:58.141Z,12.90
2022-11-19T01:45:36.049Z,16.63
2022-11-19T01:48:25.604Z,18.23
2022-11-19T01:50:56.545Z,19.60
2022-11-19T01:53:28.837Z,20.07
2022-11-19T01:55:58.843Z,23.63
2022-11-19T01:58:25.496Z,17.53
2022-11-19T02:00:51.591Z,14.73
2022-11-19T02:03:18.745Z,12.90
2022-11-19T02:05:46.547Z,12.73
2022-11-19T02:08:42.364Z,12.00
2022-11-19T02:11:33.615Z,12.77
2022-11-19T02:14:12.055Z,13.07
2022-11-19T02:17:19.662Z,12.33
2022-11-19T02:20:07.187Z,12.80
2022-11-19T02:22:50.985Z,13.10
2022-11-19T02:26:14.449Z,11.40
2022-11-19T02:28:45.958Z,13.37
2022-11-19T02:31:38.723Z,13.40
2022-11-19T02:34:13.582Z,12.93
2022-11-19T02:37:04.455Z,14.27
2022-11-19T02:39:45.806Z,15.47
2022-11-19T02:42:17.612Z,14.47
2022-11-19T02:45:21.989Z,14.27
2022-11-19T02:47:55.899Z,12.93
2022-11-19T02:50:34.972Z,14.43
2022-11-19T02:53:03.758Z,17.10
2022-11-19T02:55:30.762Z,15.47
2022-11-19T02:58:05.894Z,15.90
2022-11-19T03:01:00.872Z,16.07
2022-11-19T03:03:47.066Z,16.30
2022-11-19T03:06:33.969Z,16.73
2022-11-19T03:09:01.645Z,17.07
2022-11-19T03:11:30.023Z,15.90
2022-11-19T03:14:40.187Z,14.70
2022-11-19T03:17:20.822Z,14.87
2022-11-19T03:20:00.580Z,15.47
2022-11-19T03:22:26.672Z,16.00
2022-11-19T03:25:04.684Z,15.00
2022-11-19T03:27:37.935Z,13.70
2022-11-19T03:30:05.266Z,14.27
2022-11-19T03:32:43.629Z,13.80
2022-11-19T03:35:18.706Z,17.70
2022-11-19T03:37:50.060Z,14.93
2022-11-19T03:40:18.773Z,17.03
2022-11-19T03:42:50.492Z,14.93
2022-11-19T03:45:23.147Z,15.60
2022-11-19T03:47:51.500Z,13.53
2022-11-19T03:50:27.007Z,13.97
2022-11-19T03:52:53.647Z,12.90
2022-11-19T03:55:30.448Z,12.40
2022-11-19T03:58:08.733Z,12.40
2022-11-19T04:00:35.117Z,12.63
2022-11-19T04:03:01.496Z,12.17
2022-11-19T04:05:28.133Z,11.53
2022-11-19T04:07:54.279Z,11.43
2022-11-19T04:10:20.928Z,12.23
2022-11-19T04:12:47.189Z,11.77
2022-11-19T04:15:14.748Z,10.70
2022-11-19T04:17:41.038Z,12.40
2022-11-19T04:20:08.624Z,11.73
2022-11-19T04:22:34.738Z,15.80
2022-11-19T04:25:01.307Z,13.70
2022-11-19T04:27:27.368Z,12.50
2022-11-19T04:29:53.747Z,12.90
2022-11-19T04:32:19.828Z,11.67
2022-11-19T04:34:46.209Z,12.07
2022-11-19T04:37:12.380Z,12.60
2022-11-19T04:39:38.745Z,12.10
2022-11-19T04:42:04.828Z,11.97
2022-11-19T04:44:32.280Z,12.30
2022-11-19T04:46:59.079Z,11.67
2022-11-19T04:49:25.983Z,12.60
2022-11-19T04:51:52.263Z,11.47
2022-11-19T04:54:18.585Z,11.50
2022-11-19T04:56:44.665Z,12.43
2022-11-19T04:59:11.034Z,11.80
2022-11-19T05:01:37.129Z,11.77
2022-11-19T05:04:03.772Z,11.07
2022-11-19T05:06:29.869Z,9.87
2022-11-19T05:08:56.275Z,10.13
2022-11-19T05:11:22.391Z,11.17
2022-11-19T05:13:48.731Z,10.93
2022-11-19T05:16:15.026Z,11.17
2022-11-19T05:18:41.436Z,11.23
2022-11-19T05:21:07.564Z,10.50
2022-11-19T05:23:33.942Z,11.77
2022-11-19T05:25:59.993Z,10.57
2022-11-19T05:28:37.885Z,10.53
2022-11-19T05:31:05.191Z,10.50
2022-11-19T05:33:34.329Z,11.07
2022-11-19T05:36:01.696Z,10.93
2022-11-19T05:38:28.141Z,11.73
2022-11-19T05:40:54.354Z,10.83
2022-11-19T05:43:20.763Z,12.03
2022-11-19T05:45:46.860Z,10.43
2022-11-19T05:48:13.531Z,11.27
2022-11-19T05:50:41.720Z,11.70
2022-11-19T05:53:08.614Z,10.73
2022-11-19T05:55:35.649Z,10.97
2022-11-19T05:58:02.018Z,10.37
2022-11-19T06:00:28.496Z,10.10
2022-11-19T06:02:54.960Z,11.47
2022-11-19T06:05:21.145Z,11.07
2022-11-19T06:07:47.516Z,10.27
2022-11-19T06:10:13.661Z,10.60
2022-11-19T06:12:45.537Z,9.87
2022-11-19T06:15:13.408Z,10.00
2022-11-19T06:17:40.256Z,10.23
2022-11-19T06:20:10.108Z,9.93
2022-11-19T06:22:37.230Z,10.20
2022-11-19T06:25:04.388Z,10.80
2022-11-19T06:27:31.055Z,11.63
2022-11-19T06:29:57.655Z,13.20
2022-11-19T06:32:24.492Z,14.87
2022-11-19T06:34:51.082Z,13.57
2022-11-19T06:37:19.042Z,13.40
2022-11-19T06:39:45.512Z,13.50
2022-11-19T06:42:31.428Z,13.90
2022-11-19T06:44:57.706Z,18.53
2022-11-19T06:47:24.163Z,16.53
2022-11-19T06:49:50.770Z,15.63
2022-11-19T06:52:17.323Z,15.27
2022-11-19T06:54:43.714Z,13.83
2022-11-19T06:57:10.516Z,15.17
2022-11-19T06:59:38.287Z,15.77
2022-11-19T07:02:05.660Z,16.10
2022-11-19T07:04:32.078Z,16.07
2022-11-19T07:06:58.758Z,15.40
2022-11-19T07:09:25.060Z,16.70
2022-11-19T07:11:51.659Z,18.67
2022-11-19T07:14:18.059Z,25.80
2022-11-19T07:16:44.482Z,30.03
2022-11-19T07:19:10.591Z,31.73
2022-11-19T07:21:37.230Z,26.50
2022-11-19T07:24:05.945Z,26.57
2022-11-19T07:26:33.597Z,26.83
2022-11-19T07:29:05.566Z,26.73
2022-11-19T07:31:32.711Z,27.93
2022-11-19T07:33:59.062Z,25.70
2022-11-19T07:36:25.820Z,24.47
2022-11-19T07:38:51.998Z,22.60
2022-11-19T07:41:37.818Z,21.17
2022-11-19T07:44:04.281Z,21.13
2022-11-19T07:46:31.270Z,20.63
2022-11-19T07:49:01.545Z,21.50
2022-11-19T07:51:32.392Z,18.50
2022-11-19T07:54:00.463Z,19.13
2022-11-19T07:56:27.352Z,19.03
2022-11-19T07:58:53.640Z,21.63
2022-11-19T08:01:23.415Z,20.67
2022-11-19T08:03:56.073Z,21.80
2022-11-19T08:06:27.804Z,22.77
2022-11-19T08:08:58.313Z,22.73
2022-11-19T08:11:24.929Z,38.83
2022-11-19T08:13:52.495Z,24.07
2022-11-19T08:16:40.056Z,24.77
2022-11-19T08:19:10.040Z,22.40
2022-11-19T08:21:40.463Z,17.50
2022-11-19T08:24:08.208Z,17.33
2022-11-19T08:26:35.228Z,17.07
2022-11-19T08:29:01.529Z,17.23
2022-11-19T08:31:28.120Z,16.30
2022-11-19T08:33:54.319Z,16.40
2022-11-19T08:36:20.767Z,17.63
2022-11-19T08:38:47.129Z,18.23
2022-11-19T08:41:32.247Z,18.70
2022-11-19T08:44:00.664Z,19.37
2022-11-19T08:46:27.256Z,16.73
2022-11-19T08:48:53.443Z,15.97
2022-11-19T08:51:19.896Z,14.63
2022-11-19T08:53:46.210Z,15.07
2022-11-19T08:56:16.862Z,15.43
2022-11-19T08:58:44.585Z,15.33
2022-11-19T09:01:13.639Z,15.00
2022-11-19T09:03:40.342Z,14.13
2022-11-19T09:06:07.838Z,12.67
2022-11-19T09:08:34.919Z,13.57
2022-11-19T09:11:13.952Z,13.87
2022-11-19T09:13:42.657Z,14.73
2022-11-19T09:16:10.576Z,15.23
2022-11-19T09:18:41.292Z,15.03
2022-11-19T09:21:10.310Z,14.27
2022-11-19T09:23:36.811Z,13.87
2022-11-19T09:26:09.057Z,15.30
2022-11-19T09:28:35.690Z,15.37
2022-11-19T09:31:02.362Z,15.60
2022-11-19T09:33:30.139Z,15.23
2022-11-19T09:35:57.753Z,15.73
2022-11-19T09:38:24.625Z,14.70
2022-11-19T09:40:53.183Z,15.63
2022-11-19T09:43:38.033Z,16.70
2022-11-19T09:46:19.016Z,16.37
2022-11-19T09:48:45.756Z,14.87
2022-11-19T09:51:15.337Z,14.93
2022-11-19T09:53:50.755Z,14.03
2022-11-19T09:56:25.502Z,14.27
2022-11-19T09:58:54.655Z,14.10
2022-11-19T10:01:21.088Z,13.87
2022-11-19T10:03:49.781Z,13.43
2022-11-19T10:06:27.124Z,13.57
2022-11-19T10:09:04.693Z,14.03
2022-11-19T10:12:03.772Z,12.73
2022-11-19T10:14:42.300Z,14.43
2022-11-19T10:17:19.310Z,14.03
2022-11-19T10:20:25.215Z,14.03
2022-11-19T10:22:57.668Z,13.90
2022-11-19T10:25:42.135Z,13.47
2022-11-19T10:28:14.991Z,15.37
2022-11-19T10:30:53.837Z,13.30
2022-11-19T10:33:26.271Z,11.70
2022-11-19T10:36:02.823Z,13.03
2022-11-19T10:38:35.680Z,12.13
2022-11-19T10:41:20.917Z,10.80
2022-11-19T10:43:59.514Z,10.50
2022-11-19T10:46:27.931Z,9.97
2022-11-19T10:48:57.664Z,9.57
2022-11-19T10:51:30.116Z,9.13
2022-11-19T10:53:57.190Z,9.17
2022-11-19T10:56:38.252Z,8.60
2022-11-19T10:59:13.452Z,8.53
2022-11-19T11:01:43.886Z,8.03
2022-11-19T11:04:13.595Z,8.60
2022-11-19T11:06:50.614Z,8.93
2022-11-19T11:09:31.496Z,7.60
2022-11-19T11:12:20.772Z,7.93
2022-11-19T11:14:53.693Z,7.37
2022-11-19T11:17:31.466Z,8.03
2022-11-19T11:20:03.478Z,8.43
2022-11-19T11:22:30.808Z,7.70
2022-11-19T11:25:05.729Z,7.03
2022-11-19T11:27:34.754Z,6.87
2022-11-19T11:30:16.727Z,6.77
2022-11-19T11:32:43.481Z,6.97
2022-11-19T11:35:35.389Z,6.67
2022-11-19T11:38:04.754Z,6.63
2022-11-19T11:40:31.373Z,7.10
2022-11-19T11:42:57.907Z,7.10
2022-11-19T11:45:32.555Z,8.50
2022-11-19T11:48:06.726Z,7.87
2022-11-19T11:50:36.375Z,8.67
2022-11-19T11:53:08.955Z,7.97
2022-11-19T11:55:37.979Z,7.73
2022-11-19T11:58:22.666Z,7.83
2022-11-19T12:00:52.363Z,6.93
2022-11-19T12:03:19.407Z,7.80
2022-11-19T12:05:49.397Z,7.40
2022-11-19T12:08:27.035Z,7.27
2022-11-19T12:10:56.987Z,8.00
2022-11-19T12:13:48.601Z,7.57
2022-11-19T12:16:37.539Z,7.87
2022-11-19T12:19:20.345Z,9.57
2022-11-19T12:21:49.570Z,8.63
2022-11-19T12:24:34.049Z,9.93
2022-11-19T12:27:06.468Z,9.63
2022-11-19T12:29:58.024Z,8.43
2022-11-19T12:32:33.973Z,8.77
2022-11-19T12:35:33.988Z,8.93
2022-11-19T12:38:17.170Z,9.60
2022-11-19T12:41:12.756Z,9.40
2022-11-19T12:43:58.869Z,9.37
2022-11-19T12:46:45.054Z,9.77
2022-11-19T12:49:41.448Z,8.57
2022-11-19T12:52:16.897Z,9.50
2022-11-19T12:54:56.951Z,10.13
2022-11-19T12:57:38.547Z,7.03
2022-11-19T13:00:11.094Z,7.87
2022-11-19T13:02:51.456Z,8.17
2022-11-19T13:05:19.723Z,8.63
2022-11-19T13:08:09.452Z,9.27
2022-11-19T13:10:41.592Z,7.67
2022-11-19T13:13:13.669Z,6.57
2022-11-19T13:15:47.786Z,6.53
2022-11-19T13:18:16.904Z,6.07
2022-11-19T13:20:51.123Z,6.10
2022-11-19T13:23:40.130Z,5.57
2022-11-19T13:26:12.755Z,4.73
2022-11-19T13:28:48.178Z,5.10
2022-11-19T13:31:40.772Z,5.40
2022-11-19T13:34:26.240Z,5.23
2022-11-19T13:37:14.274Z,5.77
2022-11-19T13:40:18.980Z,5.83
2022-11-19T13:43:30.596Z,6.40
2022-11-19T13:46:04.087Z,6.50
2022-11-19T13:48:36.387Z,7.10
2022-11-19T13:51:09.122Z,5.93
2022-11-19T13:53:44.349Z,5.77
2022-11-19T13:56:16.614Z,6.80
2022-11-19T13:58:49.977Z,6.80
2022-11-19T14:01:35.003Z,7.03
2022-11-19T14:04:36.694Z,7.40
2022-11-19T14:07:40.194Z,6.87
2022-11-19T14:10:24.708Z,6.70
2022-11-19T14:12:56.633Z,6.60
2022-11-19T14:15:51.271Z,6.60
2022-11-19T14:18:53.066Z,7.57
2022-11-19T14:21:42.581Z,7.10
2022-11-19T14:24:42.595Z,7.57
2022-11-19T14:27:25.541Z,10.47
2022-11-19T14:30:16.018Z,11.77
2022-11-19T14:32:51.255Z,9.23
2022-11-19T14:35:26.706Z,10.37
2022-11-19T14:37:57.214Z,9.57
2022-11-19T14:40:30.887Z,10.17
2022-11-19T14:43:18.990Z,10.80
2022-11-19T14:46:00.350Z,10.30
2022-11-19T14:48:29.212Z,11.43
2022-11-19T14:51:01.258Z,8.87
2022-11-19T14:53:27.732Z,9.87
2022-11-19T14:55:53.898Z,8.03
2022-11-19T14:58:23.531Z,9.27
2022-11-19T15:01:04.846Z,9.23
2022-11-19T15:03:31.690Z,8.83
2022-11-19T15:06:04.471Z,11.03
2022-11-19T15:08:48.852Z,10.57
2022-11-19T15:11:16.479Z,10.07
2022-11-19T15:13:45.406Z,9.17
2022-11-19T15:16:25.806Z,10.20
2022-11-19T15:18:55.007Z,10.27
2022-11-19T15:21:39.143Z,10.83
2022-11-19T15:24:23.260Z,9.73
2022-11-19T15:27:30.577Z,10.47
2022-11-19T15:30:06.492Z,9.70
2022-11-19T15:33:07.027Z,11.10
2022-11-19T15:35:51.526Z,9.93
2022-11-19T15:38:24.219Z,12.33
2022-11-19T15:40:54.330Z,12.80
2022-11-19T15:43:29.933Z,13.07
2022-11-19T15:46:04.299Z,13.17
2022-11-19T15:48:40.894Z,13.50
2022-11-19T15:51:13.867Z,13.33
2022-11-19T15:53:57.755Z,13.03
2022-11-19T15:56:26.923Z,11.47
2022-11-19T15:58:53.379Z,13.10
2022-11-19T16:01:21.404Z,15.97
2022-11-19T16:03:51.086Z,14.87
2022-11-19T16:06:28.887Z,14.20
2022-11-19T16:08:59.714Z,13.43
2022-11-19T16:11:47.878Z,28.50
2022-11-19T16:14:45.345Z,19.33
2022-11-19T16:17:32.372Z,20.90
2022-11-19T16:20:21.579Z,17.87
2022-11-19T16:22:54.228Z,19.30
2022-11-19T16:25:30.017Z,18.20
2022-11-19T16:27:59.604Z,19.43
2022-11-19T16:30:29.195Z,15.97
2022-11-19T16:32:59.352Z,15.53
2022-11-19T16:35:30.890Z,13.97
2022-11-19T16:38:00.137Z,15.87
2022-11-19T16:40:47.503Z,16.17
2022-11-19T16:43:14.524Z,13.43
2022-11-19T16:45:46.237Z,11.90
2022-11-19T16:48:52.450Z,11.90
2022-11-19T16:51:34.108Z,12.50
2022-11-19T16:54:02.942Z,19.23
2022-11-19T16:56:42.240Z,35.47
2022-11-19T16:59:17.651Z,19.63
2022-11-19T17:01:51.493Z,13.20
2022-11-19T17:04:18.738Z,13.23
2022-11-19T17:07:12.110Z,14.00
2022-11-19T17:09:43.174Z,30.60
2022-11-19T17:12:55.646Z,25.90
2022-11-19T17:15:38.003Z,15.33
2022-11-19T17:18:33.803Z,13.50
2022-11-19T17:21:04.400Z,12.23
2022-11-19T17:23:33.731Z,12.27
2022-11-19T17:26:04.004Z,13.63
2022-11-19T17:28:37.381Z,15.03
2022-11-19T17:31:14.245Z,12.53
2022-11-19T17:34:14.389Z,11.67
2022-11-19T17:36:41.826Z,11.77
2022-11-19T17:39:12.772Z,11.13
2022-11-19T17:41:58.824Z,11.13
2022-11-19T17:44:38.407Z,10.80
2022-11-19T17:47:22.239Z,12.10
2022-11-19T17:49:49.596Z,12.33
2022-11-19T17:52:27.639Z,13.07
2022-11-19T17:55:03.582Z,12.80
2022-11-19T17:57:30.599Z,13.53
2022-11-19T17:59:56.865Z,12.67
2022-11-19T18:02:23.838Z,13.23
2022-11-19T18:04:51.405Z,16.17
2022-11-19T18:07:18.101Z,15.87
2022-11-19T18:09:44.617Z,12.43
2022-11-19T18:12:17.264Z,14.67
2022-11-19T18:14:44.537Z,14.73
2022-11-19T18:17:14.061Z,14.63
2022-11-19T18:19:41.241Z,12.53
2022-11-19T18:22:17.602Z,14.10
2022-11-19T18:24:49.283Z,13.20
2022-11-19T18:27:16.545Z,15.37
2022-11-19T18:29:42.940Z,13.37
2022-11-19T18:32:16.135Z,15.93
2022-11-19T18:34:44.039Z,14.93
2022-11-19T18:37:10.971Z,15.10
2022-11-19T18:39:37.506Z,15.80
2022-11-19T18:42:04.113Z,15.83
2022-11-19T18:44:37.782Z,15.90
2022-11-19T18:47:09.358Z,15.73
2022-11-19T18:49:36.269Z,16.77
2022-11-19T18:52:06.415Z,14.63
2022-11-19T18:54:36.364Z,14.50
2022-11-19T18:57:03.460Z,14.33
2022-11-19T18:59:29.904Z,12.70
2022-11-19T19:01:56.564Z,12.33
2022-11-19T19:04:23.451Z,12.27
2022-11-19T19:06:49.921Z,9.97
2022-11-19T19:09:19.606Z,9.50
2022-11-19T19:12:13.003Z,9.27
2022-11-19T19:14:41.573Z,8.03
2022-11-19T19:17:08.246Z,9.47
2022-11-19T19:19:35.065Z,8.67
2022-11-19T19:22:01.784Z,8.13
2022-11-19T19:24:28.684Z,10.10
2022-11-19T19:26:56.308Z,8.00
2022-11-19T19:29:22.936Z,10.40
2022-11-19T19:31:52.325Z,8.73
2022-11-19T19:34:19.035Z,8.97
2022-11-19T19:36:51.647Z,8.97
2022-11-19T19:39:19.784Z,9.70
2022-11-19T19:41:48.525Z,9.50
2022-11-19T19:44:15.029Z,9.77
2022-11-19T19:46:43.338Z,8.00
2022-11-19T19:49:09.851Z,9.30
2022-11-19T19:51:36.577Z,10.00
2022-11-19T19:54:03.208Z,10.53
2022-11-19T19:56:31.525Z,10.07
2022-11-19T19:58:59.299Z,8.07
2022-11-19T20:01:32.351Z,8.60
2022-11-19T20:04:07.592Z,8.13
2022-11-19T20:06:35.867Z,7.43
2022-11-19T20:09:09.187Z,8.67
2022-11-19T20:11:52.702Z,8.97
2022-11-19T20:14:19.580Z,9.60
2022-11-19T20:16:48.067Z,8.83
2022-11-19T20:19:14.596Z,9.73
2022-11-19T20:21:41.941Z,11.23
2022-11-19T20:24:12.626Z,9.53
2022-11-19T20:26:41.959Z,9.70
2022-11-19T20:29:11.589Z,14.13
2022-11-19T20:31:40.076Z,16.80
2022-11-19T20:34:07.353Z,10.77
2022-11-19T20:36:34.910Z,10.03
2022-11-19T20:39:01.640Z,9.33
2022-11-19T20:41:47.183Z,9.40
2022-11-19T20:44:22.837Z,9.30
2022-11-19T20:47:02.896Z,9.13
2022-11-19T20:49:33.389Z,9.93
2022-11-19T20:52:01.009Z,12.07
2022-11-19T20:54:28.200Z,11.37
2022-11-19T20:56:56.047Z,11.53
2022-11-19T20:59:24.706Z,11.47
2022-11-19T21:01:54.618Z,11.93
2022-11-19T21:04:23.670Z,9.87
2022-11-19T21:06:53.243Z,8.97
2022-11-19T21:09:20.519Z,8.17
2022-11-19T21:11:50.509Z,7.70
2022-11-19T21:14:18.573Z,6.40
2022-11-19T21:16:48.278Z,6.83
2022-11-19T21:19:15.879Z,6.13
2022-11-19T21:21:44.336Z,5.73
2022-11-19T21:24:12.697Z,6.43
2022-11-19T21:26:40.005Z,5.17
2022-11-19T21:29:07.155Z,6.00
2022-11-19T21:31:44.115Z,5.33
2022-11-19T21:34:17.337Z,5.30
2022-11-19T21:36:48.012Z,5.73
2022-11-19T21:39:17.274Z,5.53
2022-11-19T21:41:47.785Z,5.57
2022-11-19T21:44:19.779Z,5.67
2022-11-19T21:46:48.849Z,6.20
2022-11-19T21:49:15.458Z,6.47
2022-11-19T21:51:43.305Z,6.17
2022-11-19T21:54:09.713Z,5.33
2022-11-19T21:56:38.877Z,5.77
2022-11-19T21:59:06.393Z,5.30
2022-11-19T22:01:33.092Z,4.90
2022-11-19T22:03:59.418Z,4.80
2022-11-19T22:06:28.750Z,5.13
2022-11-19T22:08:54.952Z,5.20
2022-11-19T22:11:31.186Z,5.33
2022-11-19T22:14:07.721Z,5.50
2022-11-19T22:16:39.700Z,4.93
2022-11-19T22:19:12.391Z,5.17
2022-11-19T22:21:39.501Z,4.90
2022-11-19T22:24:06.090Z,4.70
2022-11-19T22:26:32.909Z,4.77
2022-11-19T22:28:59.155Z,5.10
2022-11-19T22:31:26.116Z,5.43
2022-11-19T22:33:53.113Z,5.50
2022-11-19T22:36:22.944Z,4.90
2022-11-19T22:38:50.968Z,5.70
2022-11-19T22:41:19.151Z,5.33
2022-11-19T22:43:45.938Z,6.13
2022-11-19T22:46:13.898Z,5.70
2022-11-19T22:48:41.057Z,5.80
2022-11-19T22:51:14.806Z,5.80
2022-11-19T22:53:42.173Z,5.00
2022-11-19T22:56:11.141Z,5.23
2022-11-19T22:58:38.503Z,5.40
2022-11-19T23:01:06.361Z,4.60
2022-11-19T23:03:32.737Z,5.30
2022-11-19T23:05:59.404Z,6.20
2022-11-19T23:08:25.753Z,6.70
2022-11-19T23:10:59.744Z,6.47
2022-11-19T23:13:31.242Z,6.93
2022-11-19T23:16:07.176Z,6.73
2022-11-19T23:18:47.446Z,6.40
2022-11-19T23:21:16.926Z,7.53
2022-11-19T23:23:43.274Z,7.40
2022-11-19T23:26:12.490Z,6.87
2022-11-19T23:28:42.433Z,7.13
2022-11-19T23:31:13.625Z,6.20
2022-11-19T23:33:40.577Z,6.90
2022-11-19T23:36:13.019Z,7.80
2022-11-19T23:38:40.429Z,8.23
2022-11-19T23:41:10.899Z,8.07
2022-11-19T23:43:37.954Z,8.87
2022-11-19T23:46:07.164Z,8.40
2022-11-19T23:48:34.258Z,9.10
2022-11-19T23:51:06.655Z,9.87
2022-11-19T23:53:33.261Z,10.27
2022-11-19T23:56:00.086Z,9.70
2022-11-19T23:58:26.731Z,9.23
